sensor_id;sensor_type;location;lat;lon;timestamp;P1;durP1;ratioP1;P2;durP2;ratioP2
6269;SDS011;3168;51.684;6.954;2023-03-01T00:00:28;1.07;;;1.07;;
6269;SDS011;3168;51.684;6.954;2023-03-01T00:02:54;2.00;;;1.90;;
6269;SDS011;3168;51.684;6.954;2023-03-01T00:05:20;1.93;;;1.70;;
6269;SDS011;3168;51.684;6.954;2023-03-01T00:07:46;1.10;;;1.10;;
6269;SDS011;3168;51.684;6.954;2023-03-01T00:10:11;3.77;;;2.40;;
6269;SDS011;3168;51.684;6.954;2023-03-01T00:12:37;1.10;;;1.10;;
6269;SDS011;3168;51.684;6.954;2023-03-01T00:15:03;2.30;;;2.17;;
6269;SDS011;3168;51.684;6.954;2023-03-01T00:17:29;1.13;;;0.90;;
6269;SDS011;3168;51.684;6.954;2023-03-01T00:19:55;1.70;;;1.60;;
6269;SDS011;3168;51.684;6.954;2023-03-01T00:22:21;1.30;;;1.30;;
6269;SDS011;3168;51.684;6.954;2023-03-01T00:24:47;2.13;;;2.03;;
6269;SDS011;3168;51.684;6.954;2023-03-01T00:27:12;1.73;;;1.73;;
6269;SDS011;3168;51.684;6.954;2023-03-01T00:29:38;2.07;;;2.00;;
6269;SDS011;3168;51.684;6.954;2023-03-01T00:32:04;1.87;;;1.87;;
6269;SDS011;3168;51.684;6.954;2023-03-01T00:34:30;1.10;;;1.00;;
6269;SDS011;3168;51.684;6.954;2023-03-01T00:36:56;0.80;;;0.80;;
6269;SDS011;3168;51.684;6.954;2023-03-01T00:39:22;1.67;;;1.57;;
6269;SDS011;3168;51.684;6.954;2023-03-01T00:41:48;1.03;;;1.03;;
6269;SDS011;3168;51.684;6.954;2023-03-01T00:44:13;1.60;;;1.60;;
6269;SDS011;3168;51.684;6.954;2023-03-01T00:46:39;1.60;;;1.60;;
6269;SDS011;3168;51.684;6.954;2023-03-01T00:49:05;1.27;;;1.27;;
6269;SDS011;3168;51.684;6.954;2023-03-01T00:51:31;1.83;;;1.73;;
6269;SDS011;3168;51.684;6.954;2023-03-01T00:53:58;1.40;;;1.40;;
6269;SDS011;3168;51.684;6.954;2023-03-01T00:56:23;1.80;;;0.90;;
6269;SDS011;3168;51.684;6.954;2023-03-01T00:58:48;2.03;;;1.93;;
6269;SDS011;3168;51.684;6.954;2023-03-01T01:01:16;1.23;;;1.23;;
6269;SDS011;3168;51.684;6.954;2023-03-01T01:03:46;1.40;;;1.30;;
6269;SDS011;3168;51.684;6.954;2023-03-01T01:06:13;0.97;;;0.97;;
6269;SDS011;3168;51.684;6.954;2023-03-01T01:08:38;1.80;;;1.70;;
6269;SDS011;3168;51.684;6.954;2023-03-01T01:11:04;2.00;;;2.00;;
6269;SDS011;3168;51.684;6.954;2023-03-01T01:13:29;1.93;;;1.83;;
6269;SDS011;3168;51.684;6.954;2023-03-01T01:15:59;1.47;;;1.37;;
6269;SDS011;3168;51.684;6.954;2023-03-01T01:18:21;2.40;;;2.27;;
6269;SDS011;3168;51.684;6.954;2023-03-01T01:20:47;1.50;;;1.40;;
6269;SDS011;3168;51.684;6.954;2023-03-01T01:23:13;1.20;;;1.20;;
6269;SDS011;3168;51.684;6.954;2023-03-01T01:25:38;1.27;;;1.23;;
6269;SDS011;3168;51.684;6.954;2023-03-01T01:28:04;1.20;;;1.20;;
6269;SDS011;3168;51.684;6.954;2023-03-01T01:30:30;12.57;;;2.53;;
6269;SDS011;3168;51.684;6.954;2023-03-01T01:32:56;1.83;;;1.83;;
6269;SDS011;3168;51.684;6.954;2023-03-01T01:35:21;1.23;;;1.23;;
6269;SDS011;3168;51.684;6.954;2023-03-01T01:37:47;1.00;;;1.00;;
6269;SDS011;3168;51.684;6.954;2023-03-01T01:40:13;2.10;;;1.80;;
6269;SDS011;3168;51.684;6.954;2023-03-01T01:42:39;0.67;;;0.67;;
6269;SDS011;3168;51.684;6.954;2023-03-01T01:47:57;3.33;;;2.53;;
6269;SDS011;3168;51.684;6.954;2023-03-01T01:50:21;1.00;;;1.00;;
6269;SDS011;3168;51.684;6.954;2023-03-01T01:52:47;2.03;;;1.93;;
6269;SDS011;3168;51.684;6.954;2023-03-01T01:55:14;0.90;;;0.90;;
6269;SDS011;3168;51.684;6.954;2023-03-01T01:57:43;1.83;;;1.83;;
6269;SDS011;3168;51.684;6.954;2023-03-01T02:00:10;1.97;;;1.97;;
6269;SDS011;3168;51.684;6.954;2023-03-01T02:02:36;1.53;;;1.03;;
6269;SDS011;3168;51.684;6.954;2023-03-01T02:05:06;0.97;;;0.97;;
6269;SDS011;3168;51.684;6.954;2023-03-01T02:07:39;0.90;;;0.90;;
6269;SDS011;3168;51.684;6.954;2023-03-01T02:10:05;1.40;;;1.40;;
6269;SDS011;3168;51.684;6.954;2023-03-01T02:12:31;1.67;;;1.60;;
6269;SDS011;3168;51.684;6.954;2023-03-01T02:14:57;2.83;;;1.20;;
6269;SDS011;3168;51.684;6.954;2023-03-01T02:17:22;2.43;;;1.67;;
6269;SDS011;3168;51.684;6.954;2023-03-01T02:19:53;2.03;;;1.93;;
6269;SDS011;3168;51.684;6.954;2023-03-01T02:22:24;1.33;;;1.33;;
6269;SDS011;3168;51.684;6.954;2023-03-01T02:24:53;0.63;;;0.63;;
6269;SDS011;3168;51.684;6.954;2023-03-01T02:27:15;4.50;;;2.50;;
6269;SDS011;3168;51.684;6.954;2023-03-01T02:29:41;1.23;;;1.13;;
6269;SDS011;3168;51.684;6.954;2023-03-01T02:32:07;1.80;;;1.70;;
6269;SDS011;3168;51.684;6.954;2023-03-01T02:34:33;0.73;;;0.73;;
6269;SDS011;3168;51.684;6.954;2023-03-01T02:37:00;0.90;;;0.90;;
6269;SDS011;3168;51.684;6.954;2023-03-01T02:39:28;4.83;;;1.80;;
6269;SDS011;3168;51.684;6.954;2023-03-01T02:41:52;2.47;;;2.30;;
6269;SDS011;3168;51.684;6.954;2023-03-01T02:44:18;1.10;;;1.10;;
6269;SDS011;3168;51.684;6.954;2023-03-01T02:46:45;1.40;;;1.00;;
6269;SDS011;3168;51.684;6.954;2023-03-01T02:49:19;1.63;;;1.63;;
6269;SDS011;3168;51.684;6.954;2023-03-01T02:51:52;4.07;;;0.93;;
6269;SDS011;3168;51.684;6.954;2023-03-01T02:54:30;0.80;;;0.80;;
6269;SDS011;3168;51.684;6.954;2023-03-01T02:56:55;3.73;;;2.57;;
6269;SDS011;3168;51.684;6.954;2023-03-01T02:59:22;1.50;;;1.50;;
6269;SDS011;3168;51.684;6.954;2023-03-01T03:01:47;1.17;;;1.17;;
6269;SDS011;3168;51.684;6.954;2023-03-01T03:04:14;1.40;;;1.40;;
6269;SDS011;3168;51.684;6.954;2023-03-01T03:06:38;1.70;;;1.70;;
6269;SDS011;3168;51.684;6.954;2023-03-01T03:09:04;2.77;;;2.20;;
6269;SDS011;3168;51.684;6.954;2023-03-01T03:11:30;2.65;;;1.67;;
6269;SDS011;3168;51.684;6.954;2023-03-01T03:13:56;1.30;;;1.30;;
6269;SDS011;3168;51.684;6.954;2023-03-01T03:16:22;1.80;;;1.70;;
6269;SDS011;3168;51.684;6.954;2023-03-01T03:18:47;2.23;;;2.20;;
6269;SDS011;3168;51.684;6.954;2023-03-01T03:21:13;1.73;;;1.23;;
6269;SDS011;3168;51.684;6.954;2023-03-01T03:23:39;2.13;;;1.80;;
6269;SDS011;3168;51.684;6.954;2023-03-01T03:26:05;1.80;;;1.80;;
6269;SDS011;3168;51.684;6.954;2023-03-01T03:28:32;1.43;;;1.43;;
6269;SDS011;3168;51.684;6.954;2023-03-01T03:30:57;0.80;;;0.80;;
6269;SDS011;3168;51.684;6.954;2023-03-01T03:33:23;3.30;;;2.23;;
6269;SDS011;3168;51.684;6.954;2023-03-01T03:35:49;0.83;;;0.83;;
6269;SDS011;3168;51.684;6.954;2023-03-01T03:38:16;0.80;;;0.80;;
6269;SDS011;3168;51.684;6.954;2023-03-01T03:40:41;2.90;;;2.03;;
6269;SDS011;3168;51.684;6.954;2023-03-01T03:43:08;1.10;;;1.10;;
6269;SDS011;3168;51.684;6.954;2023-03-01T03:45:32;1.53;;;1.53;;
6269;SDS011;3168;51.684;6.954;2023-03-01T03:47:58;2.30;;;2.20;;
6269;SDS011;3168;51.684;6.954;2023-03-01T03:50:24;0.83;;;0.83;;
6269;SDS011;3168;51.684;6.954;2023-03-01T03:52:49;1.17;;;1.17;;
6269;SDS011;3168;51.684;6.954;2023-03-01T03:55:15;1.10;;;1.10;;
6269;SDS011;3168;51.684;6.954;2023-03-01T03:57:41;1.90;;;1.43;;
6269;SDS011;3168;51.684;6.954;2023-03-01T04:00:08;2.17;;;1.93;;
6269;SDS011;3168;51.684;6.954;2023-03-01T04:02:37;1.83;;;1.83;;
6269;SDS011;3168;51.684;6.954;2023-03-01T04:05:03;2.40;;;2.40;;
6269;SDS011;3168;51.684;6.954;2023-03-01T04:07:29;3.83;;;2.60;;
6269;SDS011;3168;51.684;6.954;2023-03-01T04:09:54;2.60;;;2.40;;
6269;SDS011;3168;51.684;6.954;2023-03-01T04:12:20;1.75;;;1.75;;
6269;SDS011;3168;51.684;6.954;2023-03-01T04:14:46;1.10;;;0.90;;
6269;SDS011;3168;51.684;6.954;2023-03-01T04:17:12;1.00;;;1.00;;
6269;SDS011;3168;51.684;6.954;2023-03-01T04:19:38;2.60;;;2.50;;
6269;SDS011;3168;51.684;6.954;2023-03-01T04:22:04;1.57;;;1.57;;
6269;SDS011;3168;51.684;6.954;2023-03-01T04:24:29;1.63;;;1.63;;
6269;SDS011;3168;51.684;6.954;2023-03-01T04:26:55;1.90;;;1.27;;
6269;SDS011;3168;51.684;6.954;2023-03-01T04:29:21;1.70;;;1.60;;
6269;SDS011;3168;51.684;6.954;2023-03-01T04:31:47;1.83;;;1.73;;
6269;SDS011;3168;51.684;6.954;2023-03-01T04:34:12;1.40;;;1.40;;
6269;SDS011;3168;51.684;6.954;2023-03-01T04:36:38;1.13;;;0.70;;
6269;SDS011;3168;51.684;6.954;2023-03-01T04:39:04;2.40;;;1.17;;
6269;SDS011;3168;51.684;6.954;2023-03-01T04:41:30;2.00;;;1.90;;
6269;SDS011;3168;51.684;6.954;2023-03-01T04:43:56;1.37;;;1.37;;
6269;SDS011;3168;51.684;6.954;2023-03-01T04:46:22;1.30;;;1.30;;
6269;SDS011;3168;51.684;6.954;2023-03-01T04:48:48;1.70;;;1.37;;
6269;SDS011;3168;51.684;6.954;2023-03-01T04:51:13;1.33;;;1.33;;
6269;SDS011;3168;51.684;6.954;2023-03-01T04:53:39;1.67;;;1.60;;
6269;SDS011;3168;51.684;6.954;2023-03-01T04:56:05;3.03;;;1.97;;
6269;SDS011;3168;51.684;6.954;2023-03-01T04:58:31;1.00;;;1.00;;
6269;SDS011;3168;51.684;6.954;2023-03-01T05:00:57;4.17;;;1.50;;
6269;SDS011;3168;51.684;6.954;2023-03-01T05:03:23;1.73;;;0.90;;
6269;SDS011;3168;51.684;6.954;2023-03-01T05:05:49;1.10;;;1.10;;
6269;SDS011;3168;51.684;6.954;2023-03-01T05:08:15;2.17;;;2.07;;
6269;SDS011;3168;51.684;6.954;2023-03-01T05:10:44;1.47;;;1.40;;
6269;SDS011;3168;51.684;6.954;2023-03-01T05:13:10;0.70;;;0.70;;
6269;SDS011;3168;51.684;6.954;2023-03-01T05:15:36;1.10;;;1.10;;
6269;SDS011;3168;51.684;6.954;2023-03-01T05:18:01;1.53;;;1.50;;
6269;SDS011;3168;51.684;6.954;2023-03-01T05:20:28;2.90;;;1.50;;
6269;SDS011;3168;51.684;6.954;2023-03-01T05:22:55;1.87;;;1.77;;
6269;SDS011;3168;51.684;6.954;2023-03-01T05:25:20;1.40;;;1.40;;
6269;SDS011;3168;51.684;6.954;2023-03-01T05:27:46;1.30;;;1.30;;
6269;SDS011;3168;51.684;6.954;2023-03-01T05:30:12;2.27;;;2.07;;
6269;SDS011;3168;51.684;6.954;2023-03-01T05:32:40;1.27;;;1.17;;
6269;SDS011;3168;51.684;6.954;2023-03-01T05:35:09;1.43;;;1.43;;
6269;SDS011;3168;51.684;6.954;2023-03-01T05:37:34;1.97;;;1.87;;
6269;SDS011;3168;51.684;6.954;2023-03-01T05:40:00;2.20;;;2.10;;
6269;SDS011;3168;51.684;6.954;2023-03-01T05:42:26;1.43;;;1.33;;
6269;SDS011;3168;51.684;6.954;2023-03-01T05:44:51;1.43;;;1.33;;
6269;SDS011;3168;51.684;6.954;2023-03-01T05:47:17;0.80;;;0.80;;
6269;SDS011;3168;51.684;6.954;2023-03-01T05:49:43;1.43;;;1.33;;
6269;SDS011;3168;51.684;6.954;2023-03-01T05:52:09;2.40;;;2.30;;
6269;SDS011;3168;51.684;6.954;2023-03-01T05:54:34;2.30;;;2.20;;
6269;SDS011;3168;51.684;6.954;2023-03-01T05:57:00;1.70;;;1.60;;
6269;SDS011;3168;51.684;6.954;2023-03-01T05:59:26;1.07;;;1.07;;
6269;SDS011;3168;51.684;6.954;2023-03-01T06:01:52;1.37;;;1.37;;
6269;SDS011;3168;51.684;6.954;2023-03-01T06:04:18;1.60;;;1.50;;
6269;SDS011;3168;51.684;6.954;2023-03-01T06:06:44;2.40;;;2.20;;
6269;SDS011;3168;51.684;6.954;2023-03-01T06:09:09;2.47;;;2.33;;
6269;SDS011;3168;51.684;6.954;2023-03-01T06:11:36;2.90;;;2.80;;
6269;SDS011;3168;51.684;6.954;2023-03-01T06:14:01;3.60;;;1.70;;
6269;SDS011;3168;51.684;6.954;2023-03-01T06:16:27;1.27;;;1.27;;
6269;SDS011;3168;51.684;6.954;2023-03-01T06:18:53;1.93;;;1.83;;
6269;SDS011;3168;51.684;6.954;2023-03-01T06:21:18;18.13;;;1.73;;
6269;SDS011;3168;51.684;6.954;2023-03-01T06:23:44;2.17;;;2.07;;
6269;SDS011;3168;51.684;6.954;2023-03-01T06:26:10;1.60;;;1.60;;
6269;SDS011;3168;51.684;6.954;2023-03-01T06:28:36;1.07;;;1.07;;
6269;SDS011;3168;51.684;6.954;2023-03-01T06:31:02;1.67;;;1.53;;
6269;SDS011;3168;51.684;6.954;2023-03-01T06:33:27;1.20;;;1.20;;
6269;SDS011;3168;51.684;6.954;2023-03-01T06:35:54;1.20;;;1.20;;
6269;SDS011;3168;51.684;6.954;2023-03-01T06:38:19;2.30;;;2.13;;
6269;SDS011;3168;51.684;6.954;2023-03-01T06:40:45;1.97;;;1.97;;
6269;SDS011;3168;51.684;6.954;2023-03-01T06:43:11;1.10;;;1.10;;
6269;SDS011;3168;51.684;6.954;2023-03-01T06:45:37;2.10;;;1.87;;
6269;SDS011;3168;51.684;6.954;2023-03-01T06:48:04;2.30;;;1.60;;
6269;SDS011;3168;51.684;6.954;2023-03-01T06:50:29;1.40;;;1.30;;
6269;SDS011;3168;51.684;6.954;2023-03-01T06:52:55;4.17;;;3.37;;
6269;SDS011;3168;51.684;6.954;2023-03-01T06:55:21;1.27;;;1.27;;
6269;SDS011;3168;51.684;6.954;2023-03-01T06:57:46;1.63;;;1.40;;
6269;SDS011;3168;51.684;6.954;2023-03-01T07:00:13;2.00;;;1.90;;
6269;SDS011;3168;51.684;6.954;2023-03-01T07:02:39;2.77;;;2.67;;
6269;SDS011;3168;51.684;6.954;2023-03-01T07:05:05;3.10;;;2.90;;
6269;SDS011;3168;51.684;6.954;2023-03-01T07:07:31;1.23;;;1.23;;
6269;SDS011;3168;51.684;6.954;2023-03-01T07:09:57;2.00;;;1.90;;
6269;SDS011;3168;51.684;6.954;2023-03-01T07:12:23;0.90;;;0.90;;
6269;SDS011;3168;51.684;6.954;2023-03-01T07:14:49;3.07;;;2.87;;
6269;SDS011;3168;51.684;6.954;2023-03-01T07:17:15;1.20;;;1.20;;
6269;SDS011;3168;51.684;6.954;2023-03-01T07:19:40;2.40;;;2.30;;
6269;SDS011;3168;51.684;6.954;2023-03-01T07:22:06;6.10;;;2.10;;
6269;SDS011;3168;51.684;6.954;2023-03-01T07:24:32;2.57;;;2.00;;
6269;SDS011;3168;51.684;6.954;2023-03-01T07:26:58;3.80;;;3.50;;
6269;SDS011;3168;51.684;6.954;2023-03-01T07:29:24;2.77;;;2.57;;
6269;SDS011;3168;51.684;6.954;2023-03-01T07:31:49;1.37;;;1.37;;
6269;SDS011;3168;51.684;6.954;2023-03-01T07:34:15;2.00;;;1.90;;
6269;SDS011;3168;51.684;6.954;2023-03-01T07:36:41;3.23;;;3.10;;
6269;SDS011;3168;51.684;6.954;2023-03-01T07:39:07;2.40;;;2.00;;
6269;SDS011;3168;51.684;6.954;2023-03-01T07:41:33;2.17;;;2.07;;
6269;SDS011;3168;51.684;6.954;2023-03-01T07:43:59;2.47;;;1.40;;
6269;SDS011;3168;51.684;6.954;2023-03-01T07:46:26;1.97;;;1.50;;
6269;SDS011;3168;51.684;6.954;2023-03-01T07:48:51;3.03;;;2.23;;
6269;SDS011;3168;51.684;6.954;2023-03-01T07:51:17;1.47;;;1.47;;
6269;SDS011;3168;51.684;6.954;2023-03-01T07:53:45;2.00;;;1.80;;
6269;SDS011;3168;51.684;6.954;2023-03-01T07:56:10;3.60;;;3.40;;
6269;SDS011;3168;51.684;6.954;2023-03-01T07:58:36;3.77;;;3.40;;
6269;SDS011;3168;51.684;6.954;2023-03-01T08:01:02;1.57;;;1.53;;
6269;SDS011;3168;51.684;6.954;2023-03-01T08:03:27;1.57;;;1.57;;
6269;SDS011;3168;51.684;6.954;2023-03-01T08:05:53;2.30;;;2.20;;
6269;SDS011;3168;51.684;6.954;2023-03-01T08:08:19;1.90;;;1.80;;
6269;SDS011;3168;51.684;6.954;2023-03-01T08:10:45;4.07;;;3.13;;
6269;SDS011;3168;51.684;6.954;2023-03-01T08:13:11;2.57;;;2.37;;
6269;SDS011;3168;51.684;6.954;2023-03-01T08:15:37;2.27;;;2.07;;
6269;SDS011;3168;51.684;6.954;2023-03-01T08:18:02;2.20;;;2.10;;
6269;SDS011;3168;51.684;6.954;2023-03-01T08:20:28;2.87;;;2.67;;
6269;SDS011;3168;51.684;6.954;2023-03-01T08:22:54;3.20;;;2.87;;
6269;SDS011;3168;51.684;6.954;2023-03-01T08:25:21;2.23;;;2.20;;
6269;SDS011;3168;51.684;6.954;2023-03-01T08:27:47;1.63;;;1.63;;
6269;SDS011;3168;51.684;6.954;2023-03-01T08:30:13;1.60;;;1.50;;
6269;SDS011;3168;51.684;6.954;2023-03-01T08:32:39;1.70;;;1.70;;
6269;SDS011;3168;51.684;6.954;2023-03-01T08:35:05;2.33;;;2.13;;
6269;SDS011;3168;51.684;6.954;2023-03-01T08:37:31;3.03;;;2.83;;
6269;SDS011;3168;51.684;6.954;2023-03-01T08:39:57;2.17;;;2.07;;
6269;SDS011;3168;51.684;6.954;2023-03-01T08:42:23;1.80;;;1.70;;
6269;SDS011;3168;51.684;6.954;2023-03-01T08:44:49;2.23;;;2.13;;
6269;SDS011;3168;51.684;6.954;2023-03-01T08:47:14;2.50;;;2.47;;
6269;SDS011;3168;51.684;6.954;2023-03-01T08:49:40;3.20;;;1.93;;
6269;SDS011;3168;51.684;6.954;2023-03-01T08:52:06;1.90;;;1.90;;
6269;SDS011;3168;51.684;6.954;2023-03-01T08:54:32;1.80;;;1.70;;
6269;SDS011;3168;51.684;6.954;2023-03-01T08:56:58;2.17;;;1.70;;
6269;SDS011;3168;51.684;6.954;2023-03-01T08:59:24;2.23;;;2.03;;
6269;SDS011;3168;51.684;6.954;2023-03-01T09:01:49;1.00;;;1.00;;
6269;SDS011;3168;51.684;6.954;2023-03-01T09:04:15;2.70;;;2.53;;
6269;SDS011;3168;51.684;6.954;2023-03-01T09:06:41;2.77;;;2.03;;
6269;SDS011;3168;51.684;6.954;2023-03-01T09:09:10;3.60;;;3.20;;
6269;SDS011;3168;51.684;6.954;2023-03-01T09:11:33;3.57;;;2.27;;
6269;SDS011;3168;51.684;6.954;2023-03-01T09:13:59;2.80;;;2.63;;
6269;SDS011;3168;51.684;6.954;2023-03-01T09:16:25;1.97;;;1.90;;
6269;SDS011;3168;51.684;6.954;2023-03-01T09:18:51;2.23;;;2.13;;
6269;SDS011;3168;51.684;6.954;2023-03-01T09:21:17;2.80;;;2.60;;
6269;SDS011;3168;51.684;6.954;2023-03-01T09:23:43;2.20;;;2.10;;
6269;SDS011;3168;51.684;6.954;2023-03-01T09:26:09;3.10;;;2.90;;
6269;SDS011;3168;51.684;6.954;2023-03-01T09:28:34;2.97;;;2.53;;
6269;SDS011;3168;51.684;6.954;2023-03-01T09:31:00;6.03;;;4.20;;
6269;SDS011;3168;51.684;6.954;2023-03-01T09:33:26;1.80;;;1.70;;
6269;SDS011;3168;51.684;6.954;2023-03-01T09:35:56;2.30;;;2.10;;
6269;SDS011;3168;51.684;6.954;2023-03-01T09:38:23;2.57;;;2.37;;
6269;SDS011;3168;51.684;6.954;2023-03-01T09:40:49;3.87;;;3.40;;
6269;SDS011;3168;51.684;6.954;2023-03-01T09:43:47;2.50;;;2.30;;
6269;SDS011;3168;51.684;6.954;2023-03-01T09:46:04;3.40;;;3.17;;
6269;SDS011;3168;51.684;6.954;2023-03-01T09:48:27;7.63;;;3.20;;
6269;SDS011;3168;51.684;6.954;2023-03-01T09:50:53;4.20;;;3.70;;
6269;SDS011;3168;51.684;6.954;2023-03-01T09:53:20;10.30;;;3.20;;
6269;SDS011;3168;51.684;6.954;2023-03-01T09:56:02;2.20;;;2.10;;
6269;SDS011;3168;51.684;6.954;2023-03-01T09:58:34;2.20;;;2.10;;
6269;SDS011;3168;51.684;6.954;2023-03-01T10:01:02;3.33;;;3.00;;
6269;SDS011;3168;51.684;6.954;2023-03-01T10:03:35;2.93;;;2.73;;
6269;SDS011;3168;51.684;6.954;2023-03-01T10:06:19;3.90;;;2.47;;
6269;SDS011;3168;51.684;6.954;2023-03-01T10:08:50;2.17;;;2.07;;
6269;SDS011;3168;51.684;6.954;2023-03-01T10:11:20;4.83;;;2.73;;
6269;SDS011;3168;51.684;6.954;2023-03-01T10:13:50;1.97;;;1.87;;
6269;SDS011;3168;51.684;6.954;2023-03-01T10:16:16;1.77;;;1.67;;
6269;SDS011;3168;51.684;6.954;2023-03-01T10:18:40;2.77;;;2.57;;
6269;SDS011;3168;51.684;6.954;2023-03-01T10:23:39;2.40;;;1.23;;
6269;SDS011;3168;51.684;6.954;2023-03-01T10:28:58;2.20;;;2.10;;
6269;SDS011;3168;51.684;6.954;2023-03-01T10:31:36;3.77;;;2.33;;
6269;SDS011;3168;51.684;6.954;2023-03-01T10:33:58;1.93;;;1.93;;
6269;SDS011;3168;51.684;6.954;2023-03-01T10:36:24;10.63;;;3.40;;
6269;SDS011;3168;51.684;6.954;2023-03-01T10:38:52;1.83;;;1.73;;
6269;SDS011;3168;51.684;6.954;2023-03-01T10:41:17;3.47;;;3.27;;
6269;SDS011;3168;51.684;6.954;2023-03-01T10:43:47;3.20;;;1.80;;
6269;SDS011;3168;51.684;6.954;2023-03-01T10:46:24;2.80;;;2.70;;
6269;SDS011;3168;51.684;6.954;2023-03-01T10:51:35;1.90;;;1.80;;
6269;SDS011;3168;51.684;6.954;2023-03-01T10:54:01;2.03;;;2.03;;
6269;SDS011;3168;51.684;6.954;2023-03-01T10:56:27;3.30;;;2.73;;
6269;SDS011;3168;51.684;6.954;2023-03-01T10:58:59;3.23;;;3.00;;
6269;SDS011;3168;51.684;6.954;2023-03-01T11:01:25;1.57;;;1.57;;
6269;SDS011;3168;51.684;6.954;2023-03-01T11:04:11;2.43;;;1.87;;
6269;SDS011;3168;51.684;6.954;2023-03-01T11:06:36;1.93;;;1.83;;
6269;SDS011;3168;51.684;6.954;2023-03-01T11:11:39;2.40;;;2.20;;
6269;SDS011;3168;51.684;6.954;2023-03-01T11:14:07;1.90;;;1.90;;
6269;SDS011;3168;51.684;6.954;2023-03-01T11:16:42;4.20;;;3.67;;
6269;SDS011;3168;51.684;6.954;2023-03-01T11:19:14;1.93;;;1.83;;
6269;SDS011;3168;51.684;6.954;2023-03-01T11:21:50;3.97;;;3.77;;
6269;SDS011;3168;51.684;6.954;2023-03-01T11:24:30;2.63;;;2.53;;
6269;SDS011;3168;51.684;6.954;2023-03-01T11:26:57;2.27;;;2.10;;
6269;SDS011;3168;51.684;6.954;2023-03-01T11:32:05;1.87;;;1.77;;
6269;SDS011;3168;51.684;6.954;2023-03-01T11:34:37;1.27;;;1.27;;
6269;SDS011;3168;51.684;6.954;2023-03-01T11:37:02;2.50;;;2.40;;
6269;SDS011;3168;51.684;6.954;2023-03-01T11:42:10;3.27;;;3.07;;
6269;SDS011;3168;51.684;6.954;2023-03-01T11:44:31;5.23;;;2.90;;
6269;SDS011;3168;51.684;6.954;2023-03-01T11:47:04;2.53;;;2.40;;
6269;SDS011;3168;51.684;6.954;2023-03-01T11:49:33;2.63;;;2.43;;
6269;SDS011;3168;51.684;6.954;2023-03-01T11:54:54;4.13;;;3.73;;
6269;SDS011;3168;51.684;6.954;2023-03-01T11:57:45;4.13;;;2.37;;
6269;SDS011;3168;51.684;6.954;2023-03-01T12:00:17;6.63;;;2.80;;
6269;SDS011;3168;51.684;6.954;2023-03-01T12:05:46;2.17;;;2.17;;
6269;SDS011;3168;51.684;6.954;2023-03-01T12:08:24;3.30;;;3.00;;
6269;SDS011;3168;51.684;6.954;2023-03-01T12:12:05;2.20;;;2.03;;
6269;SDS011;3168;51.684;6.954;2023-03-01T12:16:26;3.63;;;3.23;;
6269;SDS011;3168;51.684;6.954;2023-03-01T12:19:13;4.73;;;4.40;;
6269;SDS011;3168;51.684;6.954;2023-03-01T12:22:02;3.17;;;2.97;;
6269;SDS011;3168;51.684;6.954;2023-03-01T12:24:29;2.87;;;2.77;;
6269;SDS011;3168;51.684;6.954;2023-03-01T12:27:11;2.73;;;2.53;;
6269;SDS011;3168;51.684;6.954;2023-03-01T12:29:42;2.50;;;2.40;;
6269;SDS011;3168;51.684;6.954;2023-03-01T12:37:39;3.70;;;3.50;;
6269;SDS011;3168;51.684;6.954;2023-03-01T12:40:16;3.37;;;3.07;;
6269;SDS011;3168;51.684;6.954;2023-03-01T12:42:53;4.10;;;3.63;;
6269;SDS011;3168;51.684;6.954;2023-03-01T12:46:28;4.10;;;3.80;;
6269;SDS011;3168;51.684;6.954;2023-03-01T12:48:22;4.40;;;4.07;;
6269;SDS011;3168;51.684;6.954;2023-03-01T12:50:47;4.30;;;4.00;;
6269;SDS011;3168;51.684;6.954;2023-03-01T12:53:28;2.93;;;2.53;;
6269;SDS011;3168;51.684;6.954;2023-03-01T12:55:54;3.23;;;2.60;;
6269;SDS011;3168;51.684;6.954;2023-03-01T12:58:24;3.83;;;3.63;;
6269;SDS011;3168;51.684;6.954;2023-03-01T13:00:59;2.80;;;2.70;;
6269;SDS011;3168;51.684;6.954;2023-03-01T13:06:31;4.13;;;3.77;;
6269;SDS011;3168;51.684;6.954;2023-03-01T13:08:40;5.27;;;3.50;;
6269;SDS011;3168;51.684;6.954;2023-03-01T13:11:06;3.87;;;2.70;;
6269;SDS011;3168;51.684;6.954;2023-03-01T13:13:31;3.37;;;3.13;;
6269;SDS011;3168;51.684;6.954;2023-03-01T13:15:57;3.17;;;2.97;;
6269;SDS011;3168;51.684;6.954;2023-03-01T13:20:55;6.80;;;4.43;;
6269;SDS011;3168;51.684;6.954;2023-03-01T13:23:25;5.90;;;2.87;;
6269;SDS011;3168;51.684;6.954;2023-03-01T13:26:01;3.67;;;3.57;;
6269;SDS011;3168;51.684;6.954;2023-03-01T13:28:46;4.53;;;4.17;;
6269;SDS011;3168;51.684;6.954;2023-03-01T13:34:39;7.03;;;4.33;;
6269;SDS011;3168;51.684;6.954;2023-03-01T13:36:45;6.13;;;4.83;;
6269;SDS011;3168;51.684;6.954;2023-03-01T13:42:01;5.20;;;3.80;;
6269;SDS011;3168;51.684;6.954;2023-03-01T13:44:30;3.40;;;2.70;;
6269;SDS011;3168;51.684;6.954;2023-03-01T13:46:57;6.83;;;5.07;;
6269;SDS011;3168;51.684;6.954;2023-03-01T13:49:22;5.13;;;4.70;;
6269;SDS011;3168;51.684;6.954;2023-03-01T13:51:49;5.10;;;2.80;;
6269;SDS011;3168;51.684;6.954;2023-03-01T13:54:15;5.13;;;3.40;;
6269;SDS011;3168;51.684;6.954;2023-03-01T13:56:40;4.83;;;4.40;;
6269;SDS011;3168;51.684;6.954;2023-03-01T13:59:12;4.13;;;3.23;;
6269;SDS011;3168;51.684;6.954;2023-03-01T14:01:38;6.50;;;4.20;;
6269;SDS011;3168;51.684;6.954;2023-03-01T14:04:18;3.97;;;3.67;;
6269;SDS011;3168;51.684;6.954;2023-03-01T14:06:31;5.90;;;3.97;;
6269;SDS011;3168;51.684;6.954;2023-03-01T14:09:02;8.93;;;4.77;;
6269;SDS011;3168;51.684;6.954;2023-03-01T14:11:35;5.93;;;4.40;;
6269;SDS011;3168;51.684;6.954;2023-03-01T14:14:20;9.20;;;6.83;;
6269;SDS011;3168;51.684;6.954;2023-03-01T14:17:05;3.57;;;3.23;;
6269;SDS011;3168;51.684;6.954;2023-03-01T14:19:29;3.20;;;3.00;;
6269;SDS011;3168;51.684;6.954;2023-03-01T14:22:00;3.57;;;2.13;;
6269;SDS011;3168;51.684;6.954;2023-03-01T14:24:52;3.03;;;2.93;;
6269;SDS011;3168;51.684;6.954;2023-03-01T14:27:33;4.40;;;4.10;;
6269;SDS011;3168;51.684;6.954;2023-03-01T14:29:58;5.23;;;3.60;;
6269;SDS011;3168;51.684;6.954;2023-03-01T14:32:28;3.30;;;3.10;;
6269;SDS011;3168;51.684;6.954;2023-03-01T14:34:52;3.40;;;3.20;;
6269;SDS011;3168;51.684;6.954;2023-03-01T14:37:19;5.00;;;4.07;;
6269;SDS011;3168;51.684;6.954;2023-03-01T14:39:48;10.80;;;5.70;;
6269;SDS011;3168;51.684;6.954;2023-03-01T14:42:14;8.57;;;4.10;;
6269;SDS011;3168;51.684;6.954;2023-03-01T14:44:40;4.23;;;3.17;;
6269;SDS011;3168;51.684;6.954;2023-03-01T14:47:05;5.03;;;4.60;;
6269;SDS011;3168;51.684;6.954;2023-03-01T14:49:37;5.60;;;3.40;;
6269;SDS011;3168;51.684;6.954;2023-03-01T14:52:05;3.30;;;3.00;;
6269;SDS011;3168;51.684;6.954;2023-03-01T14:54:48;2.77;;;2.63;;
6269;SDS011;3168;51.684;6.954;2023-03-01T14:57:15;11.87;;;3.97;;
6269;SDS011;3168;51.684;6.954;2023-03-01T14:59:41;3.50;;;3.30;;
6269;SDS011;3168;51.684;6.954;2023-03-01T15:02:08;7.63;;;4.57;;
6269;SDS011;3168;51.684;6.954;2023-03-01T15:04:33;2.83;;;2.63;;
6269;SDS011;3168;51.684;6.954;2023-03-01T15:06:59;5.07;;;3.60;;
6269;SDS011;3168;51.684;6.954;2023-03-01T15:15:19;10.87;;;3.30;;
6269;SDS011;3168;51.684;6.954;2023-03-01T15:17:37;2.80;;;2.63;;
6269;SDS011;3168;51.684;6.954;2023-03-01T15:20:05;4.50;;;2.70;;
6269;SDS011;3168;51.684;6.954;2023-03-01T15:22:31;3.90;;;3.60;;
6269;SDS011;3168;51.684;6.954;2023-03-01T15:24:57;4.80;;;4.33;;
6269;SDS011;3168;51.684;6.954;2023-03-01T15:27:23;6.80;;;4.57;;
6269;SDS011;3168;51.684;6.954;2023-03-01T15:29:50;3.72;;;3.53;;
6269;SDS011;3168;51.684;6.954;2023-03-01T15:34:57;3.10;;;2.90;;
6269;SDS011;3168;51.684;6.954;2023-03-01T15:40:00;5.60;;;3.70;;
6269;SDS011;3168;51.684;6.954;2023-03-01T15:45:11;4.20;;;3.77;;
6269;SDS011;3168;51.684;6.954;2023-03-01T15:47:38;5.87;;;4.23;;
6269;SDS011;3168;51.684;6.954;2023-03-01T15:50:02;3.87;;;3.57;;
6269;SDS011;3168;51.684;6.954;2023-03-01T15:52:33;4.07;;;3.70;;
6269;SDS011;3168;51.684;6.954;2023-03-01T15:55:00;3.00;;;2.67;;
6269;SDS011;3168;51.684;6.954;2023-03-01T15:57:25;2.77;;;2.57;;
6269;SDS011;3168;51.684;6.954;2023-03-01T15:59:51;3.50;;;3.30;;
6269;SDS011;3168;51.684;6.954;2023-03-01T16:02:17;4.20;;;3.20;;
6269;SDS011;3168;51.684;6.954;2023-03-01T16:04:42;4.17;;;3.33;;
6269;SDS011;3168;51.684;6.954;2023-03-01T16:07:08;3.10;;;2.90;;
6269;SDS011;3168;51.684;6.954;2023-03-01T16:09:34;6.07;;;3.87;;
6269;SDS011;3168;51.684;6.954;2023-03-01T16:12:00;3.07;;;2.60;;
6269;SDS011;3168;51.684;6.954;2023-03-01T16:14:26;2.53;;;2.20;;